SBOSBO SKB / TKPK
Speedbird OnlineSpeedbird Online SKB / TKPK

Robert L. Bradshaw International Airport
08:36 26.7°C

Location Basse Terre, Saint Kitts and Nevis
Latitude: 17.311199188232422
Longitude: -62.71870040893555
Local Time 08:36 on 12 Apr 2024
UTC -4 hours (America/St_Kitts)
Currency £1 equals XCD 3.39
METAR TKPK 121200Z 08014KT 9999 BKN017 27/24 Q1018
TAF TAF TKPK 121100Z 1212/1312 08014KT 9999 SCT018 SCT038 PROB40 TEMPO 1212/1224 08015G25KT SHRA PROB30 TEMPO 1300/1312 SHRA
Weather As Of 12 Apr 2024 08:33
Description Light rain
Wind 35 km/h from East (90°)
Cloud Cover 75%
Precipitation Rain: none, Snow: none
Sunrise 05:56
Sunset 18:26
NOTAM 4 active NOTAM
Rotations During the last 90 days there were
26 flights from ANU
24 flights to ANU
Web Wikipedia
Codes IATA: SKB
ICAO: TKPK
Altitude 52 Meter / 170 Feet
Distance 6,642 KM / 4,127 Miles
from London.
Runways
RunwayLength (m)Surface
072317Asphalt
252317Asphalt
Radio
TypeDescriptionFrequency
APPAPP119.6
GNDGND121.9
TWRTWR118.3
Live ATC



Support Speedbird Online

© 2017-2024 Speedbird Online